Предлагаем Вашему вниманию английскую версию страницы: AUTOTAF.ME 26498 - aviation weather forecast Rzhev

AUTOTAF 26498 - авиапрогноз Ржев

Сегодня рассвет 03:50 UTC, восход солнца 04:29 UTC,
местный полдень 09:27 UTC, заход солнца 14:25 UTC,
наступление темноты 15:03 UTC.

Краткий прогноз 26498 на 9 часов

AUTOTAF.ME 26498 212000Z 2121/2206 VRB02MPS 2000 RA BR OVC001    
  FM220000 VRB02MPS 1900 BR OVC002 
  BECMG 2201/2203 2000  
  FM220600 17003MPS 3000 BR OVC005

Детальный прогноз 26498 на 24 часа

AUTOTAF.ME 26498 212000Z 2121/2221 VRB02MPS 2000 RA BR OVC001 TX10/2221Z TN03/2121Z  
  FM220000 VRB02MPS 1900 BR OVC002 
  BECMG 2201/2203 2000  
  FM220600 17003MPS 3000 BR OVC005  
  FM221200 18005G13MPS 3000 -RA BR OVC005 
  BECMG 2213/2215 OVC002  
  BECMG 2216/2218 22005G13MPS  
  FM222100 24006G15MPS 3000 -RA BR OVC003

Подробный табличный прогноз

Время (UTC) miniAUTOTAF на 3 ч WX FZLVL
M AGL
ICE TURB Т
(°С)
Тd
(°С)
f(%) QNH
(гПа)
WIND/T
18 VRB02MPS 2000 RA BR OVC001 RA BR 720 MOD FL70/FL80 2 2 99 1016 ...
21 VRB02MPS 2000 RA BR OVC001 RA BR 810 MOD FL70/FL80 3 2 99 1015 ...
22.10.2020
00 VRB02MPS 1900 BR OVC002 BR 900 FBL FL50/FL90 3 3 99 1015 ...
03 17003MPS 2000 BR OVC002 BR 1050 MOD FL50/FL110 3 3 99 1014 ...
06 17003MPS 3000 BR OVC005 BR 1200 MOD FL110/FL120 4 4 97 1013 ...
09 18004MPS 3000 BR OVC005 BR 1350 MOD FL150/FL170 MOD SFC/FL30 5 5 94 1011 ...
12 18005G13MPS 3000 -RA BR OVC005 -RA BR 1950 MOD FL170/FL180 MOD SFC/FL30 6 5 95 1009 ...
15 20005G12MPS 3000 -RA BR OVC002 -RA BR 2100 MOD FL110/FL120 MOD SFC/FL30 6 6 96 1005 ...
18 22005G13MPS 3000 -RA BR OVC002 -RA BR 1950 MOD FL110/FL190 MOD SFC/FL30 8 7 95 1003 ...
21 24006G15MPS 3000 -RA BR OVC003 -RA BR 1950 MOD FL150/FL160 10 9 93 1000 ...
23.10.2020
00 26006G16MPS 9999 -RA OVC008 -RA 2100 MOD FL110/FL120 MOD FL30/FL40 11 9 85 1001 ...
03 27005G14MPS 9999 OVC008 2100 MOD SFC/FL40 10 8 86 1002 ...
06 26006G14MPS 9999 OVC008 1800 MOD SFC/FL30 10 8 85 1003 ...
09 26005G11MPS 9999 BKN009 1950 MOD FL110/FL190 MOD SFC/FL30 10 8 84 1004 ...
12 24005G13MPS 9999 OVC008 1800 MOD FL150/FL170 MOD SFC/FL40 11 8 85 1003 ...
15 22006G13MPS 5000 -RA BR OVC004 -RA BR 1950 FBL FL90/FL110 10 9 91 1001 ...


Широта 56.3°, долгота 34.3°, высота 197 м абс.
Средняя высота рельефа местности 239 м абс.
Прогнозы обновляются четыре раза в сутки: в 02, 08, 14, 20 ч всемирного времени.


Выбрать прогноз по другой модели Ржев
Онлайн-сводка гроз по Ржев (для РФ и ближнего зарубежья)
Карта фактических гроз в окрестностях Ржев
Динамические прогностические карты (ventusky.com)
Прогностическая карта высоты нижней границы облаков по Ржев (windy.com)
Выбрать другой город

Прогноз предназначен для личного научно-познавательного использования частными лицами
и не предназначен для принятия важных решений и выполнения реальных полётов воздушных судов

При копировании или ином использовании любых материалов данного сайта ссылка на © meteocenter.asia обязательна.

0.88/1.3